LSZALOWS

Guest
Details From LSZA - Lugano
To LOWS - Salzburg Maxglan
Flight Number -
Tags generated
Created
Modified
Stats Distance 200 nm / 371 km
Max Altitude 21,100 ft / 6,431 m
Waypoints 3
Social Downloads 1
Likes 0
Share VATSIM

Download

Looking for another format? Having issues loading an existing format? Contact us
Advertisement - Login to hide

Notes

Basic altitude profile: - Ascent Rate: 2500ft/min - Ascent Speed: 250kts - Cruise Altitude: 25000ft - Cruise Speed: 420kts - Descent Rate: 1500ft/min - Descent Speed: 250kts Options: - Use NATs: yes - Use PACOTS: yes - Use low airways: yes - Use high airways: yes

Route

LSZA ENOGO LOWS

ID Type Via Altitude (ft/m) Position (lat/lon) Dist (leg/tot) Name
O LSZA APT - 0 / 0 46.00428 / 8.91058 - / 0 nm Lugano
ENOGO FIX - 21,100 / 6,431 46.81333 / 11.06194 101 / 101 nm
O LOWS APT - 0 / 0 47.79333 / 13.00433 98 / 200 nm Salzburg Maxglan

Altitude Profile

Advertisement - Login to hide

Weather


0- 5 10 15 20 25 30 35+ Temperature / °C

Clouds and Precipitation
Forecast for 2018-08-19 00:00 UTC. Updated 4 hours ago

Ground ~20,000 ft ~40,000 ft Winds

LSZA

Details ICAO LSZA (LUG)
Name Lugano
Region Switzerland
Timezone Europe/Zurich (UTC+2.0)
Stats Elevation 915 ft / 279 m (AMSL)
Location 46.004300° 8.910580°
Runways 1
Magnetic Variation 2.504° E

METAR

LSZA 190120Z AUTO 02002KT CAVOK 20/18 Q1020

Decode

TAF

Not found

Departure Runways

ID Width Length Bearing (true/mag) Surface Threshold Overrun Markings Lighting
01 98 ft / 30 m 4,415 ft / 1,346 m 18.79° / 16.29° CONCRETE 358 ft / 109 m 16 ft / 5 m PREC-APP CENTERLINE EDGE THRESHOLD SALS REIL-UNI
19 98 ft / 30 m 4,415 ft / 1,346 m 198.79° / 196.29° CONCRETE 673 ft / 205 m 0 ft / 0 m APP CENTERLINE EDGE THRESHOLD SALS REIL-UNI

LOWS

Details ICAO LOWS (SZG)
Name Salzburg Maxglan
Region Austria
Timezone Europe/Vienna (UTC+2.0)
Stats Elevation 1,411 ft / 430 m (AMSL)
Location 47.793800° 13.003600°
Runways 1
Magnetic Variation 3.509° E

METAR

LOWS 190050Z AUTO 16005KT 9999 FEW070 17/13 Q1022

Decode

TAF

TAF LOWS 182315Z 1900/1924 15006KT CAVOK TX30/1913Z TN18/1904Z BECMG 1907/1909 34006KT 9999 FEW060 TEMPO 1913/1918 SCT050 FEW060CB BECMG 1918/1920 15005KT CAVOK

Decode

Destination Runways

ID Width Length Bearing (true/mag) Surface Threshold Overrun Markings Lighting
15 148 ft / 45 m 9,348 ft / 2,849 m 156.97° / 153.46° CONCRETE 328 ft / 100 m 0 ft / 0 m PREC-APP CENTERLINE EDGE THRESHOLD SSALR REIL-OMNI
33 148 ft / 45 m 9,348 ft / 2,849 m 336.98° / 333.47° CONCRETE 791 ft / 241 m 0 ft / 0 m PREC-APP CENTERLINE EDGE THRESHOLD SSALR REIL-OMNI

Approach Navaids

Runway Type Ident Frequency Range Bearing (true/mag) Slope Elevation
15 GS OES 109.90 MHz 10 nm / 19 km 156.98° / 153.47 ° 3.00° 1,411 ft / 430 m (AMSL)
15 DME OES 109.90 MHz 18 nm / 33 km - - 1,446 ft / 441 m (AMSL)
15 LOC-ILS OES 109.90 MHz 18 nm / 33 km 156.98° / 153.47 ° - 1,411 ft / 430 m (AMSL)
15 OM OM - - 157.09° / 153.58 ° - 1,411 ft / 430 m (AMSL)

Popular Alternatives